EDT,Max TemperatureF,Mean TemperatureF,Min TemperatureF,Max Dew PointF,MeanDew PointF,Min DewpointF,Max Humidity, Mean Humidity, Min Humidity, Max Sea Level PressureIn, Mean Sea Level PressureIn, Min Sea Level PressureIn, Max VisibilityMiles, Mean VisibilityMiles, Min VisibilityMiles, Max Wind SpeedMPH, Mean Wind SpeedMPH, Max Gust SpeedMPH,PrecipitationIn, CloudCover, Events, WindDirDegrees
2013-5-1,84,69,54,58,52,46,96,56,26,30.19,30.10,29.96,10,9,0,16,6,23,0.00,1,Fog,165
2013-5-2,82,66,50,55,50,44,94,62,26,30.22,30.16,30.08,10,10,5,18,3,24,0.00,2,Rain,90
2013-5-3,78,62,46,51,44,32,81,53,27,30.15,30.07,30.00,10,10,10,18,6,28,0.00,3,,106
2013-5-4,75,62,50,44,38,28,76,40,19,30.11,30.07,30.03,10,10,10,18,4,26,0.00,0,,104
2013-5-5,75,59,43,43,38,21,91,54,15,30.11,30.07,30.02,10,10,10,14,3,23,0.00,0,,94
2013-5-6,77,59,41,43,33,14,93,48,10,30.08,30.03,29.97,10,10,10,12,2,23,0.00,0,,78
2013-5-7,78,60,41,48,38,17,90,48,11,30.08,30.03,29.99,10,10,10,12,2,21,0.00,1,,109
2013-5-8,80,64,47,52,44,30,90,54,16,30.05,30.01,29.96,10,10,10,15,2,23,0.00,2,,303
2013-5-9,81,63,45,50,41,26,94,53,14,29.97,29.94,29.88,10,10,10,13,3,22,0.00,2,Rain,274
2013-5-10,58,51,44,51,44,42,91,86,60,29.91,29.88,29.84,10,9,3,14,7,20,0.00,8,Rain,19
2013-5-11,52,44,37,48,40,32,97,86,61,29.90,29.83,29.70,10,8,1,20,7,29,0.00,7,Rain-Snow,249
2013-5-12,43,37,31,32,27,21,80,64,42,30.08,29.96,29.85,10,10,7,25,14,31,0.00,6,Snow,303
2013-5-13,41,34,27,31,26,24,94,85,51,30.15,30.10,30.08,10,10,10,14,2,21,0.00,0,,286
2013-5-14,,,,,,,,,,,,,,,,,,,,,,
2013-5-15,,,,,,,,,,,,,,,,,,,,,,
2013-5-16,,,,,,,,,,,,,,,,,,,,,,
2013-5-17,,,,,,,,,,,,,,,,,,,,,,
2013-5-18,,,,,,,,,,,,,,,,,,,,,,
2013-5-19,,,,,,,,,,,,,,,,,,,,,,
2013-5-20,,,,,,,,,,,,,,,,,,,,,,
2013-5-21,76,70,62,62,59,56,92,65,52,29.75,29.72,29.69,10,10,10,15,8,23,0.02,4,,205
2013-5-22,64,62,59,63,60,57,96,94,89,29.73,29.67,29.62,10,7,2,15,3,22,1.70,6,Rain,311
2013-5-23,59,49,39,58,45,31,96,83,56,30.22,29.94,29.70,10,9,2,18,7,26,0.15,6,Rain,357
2013-5-24,60,46,33,34,30,24,94,59,25,30.37,30.31,30.23,10,10,10,9,5,,0.00,0,,353
2013-5-25,63,48,33,42,33,27,96,59,27,30.41,30.34,30.27,10,10,10,8,1,,0.00,0,,359
2013-5-26,66,52,37,41,34,27,95,55,23,30.36,30.29,30.22,10,10,10,6,2,16,0.00,0,,189
2013-5-27,64,52,39,45,39,35,94,62,35,30.24,30.13,29.99,10,10,10,17,5,23,0.00,4,,133
2013-5-28,71,61,51,66,56,44,97,91,71,29.98,29.85,29.76,10,6,0,9,7,17,1.04,8,Fog-Rain,131
2013-5-29,74,67,60,66,61,57,97,83,57,29.96,29.89,29.77,10,7,1,14,8,22,0.60,5,Rain,224
2013-5-30,81,70,59,68,63,58,97,79,52,29.98,29.94,29.89,10,8,0,18,5,33,0.51,3,Fog-Rain,179
2013-5-31,78,70,63,66,62,57,95,73,50,29.92,29.86,29.79,10,10,5,14,8,29,0.17,5,Rain,192